createdAt,value
2018-08-17T00:00:57.769Z,17.63
2018-08-17T00:03:27.235Z,20.60
2018-08-17T00:05:56.738Z,20.07
2018-08-17T00:08:26.232Z,20.73
2018-08-17T00:10:55.870Z,17.90
2018-08-17T00:13:25.533Z,17.80
2018-08-17T00:15:55.042Z,18.67
2018-08-17T00:18:24.488Z,17.90
2018-08-17T00:20:54.039Z,20.23
2018-08-17T00:23:23.741Z,20.23
2018-08-17T00:25:53.358Z,18.27
2018-08-17T00:28:23.091Z,16.93
2018-08-17T00:30:52.679Z,17.40
2018-08-17T00:33:22.136Z,18.10
2018-08-17T00:35:51.614Z,19.47
2018-08-17T00:38:21.405Z,18.67
2018-08-17T00:40:50.823Z,18.80
2018-08-17T00:43:20.360Z,16.60
2018-08-17T00:45:49.827Z,16.90
2018-08-17T00:48:19.470Z,18.40
2018-08-17T00:50:49.028Z,17.27
2018-08-17T00:53:18.580Z,17.00
2018-08-17T00:55:48.195Z,18.47
2018-08-17T00:58:17.707Z,14.13
2018-08-17T01:00:47.441Z,15.60
2018-08-17T01:03:17.016Z,15.73
2018-08-17T01:05:46.462Z,15.17
2018-08-17T01:08:15.909Z,15.67
2018-08-17T01:10:45.369Z,17.07
2018-08-17T01:13:15.715Z,15.23
2018-08-17T01:15:45.094Z,15.80
2018-08-17T01:18:15.611Z,15.33
2018-08-17T01:20:45.264Z,15.77
2018-08-17T01:23:14.956Z,17.90
2018-08-17T01:25:44.604Z,16.53
2018-08-17T01:28:14.100Z,17.17
2018-08-17T01:30:43.754Z,14.93
2018-08-17T01:33:13.161Z,16.43
2018-08-17T01:35:42.720Z,15.43
2018-08-17T01:38:12.197Z,16.13
2018-08-17T01:40:41.701Z,17.47
2018-08-17T01:43:11.226Z,15.37
2018-08-17T01:45:40.751Z,16.60
2018-08-17T01:48:10.934Z,15.70
2018-08-17T01:50:40.487Z,15.97
2018-08-17T01:53:09.886Z,15.37
2018-08-17T01:55:39.310Z,15.40
2018-08-17T01:58:09.026Z,21.30
2018-08-17T02:00:38.500Z,15.97
2018-08-17T02:03:08.081Z,16.80
2018-08-17T02:05:37.628Z,17.27
2018-08-17T02:08:07.091Z,18.67
2018-08-17T02:10:36.643Z,17.73
2018-08-17T02:13:06.463Z,18.13
2018-08-17T02:15:35.865Z,18.17
2018-08-17T02:18:05.322Z,17.53
2018-08-17T02:20:34.910Z,19.77
2018-08-17T02:23:04.601Z,18.10
2018-08-17T02:25:34.704Z,19.33
2018-08-17T02:28:04.100Z,17.80
2018-08-17T02:30:33.702Z,16.73
2018-08-17T02:33:03.465Z,26.47
2018-08-17T02:35:32.939Z,16.90
2018-08-17T02:38:02.466Z,16.57
2018-08-17T02:40:32.165Z,17.30
2018-08-17T02:43:01.792Z,18.93
2018-08-17T02:45:31.269Z,19.30
2018-08-17T02:48:00.795Z,17.77
2018-08-17T02:50:30.201Z,17.90
2018-08-17T02:52:59.944Z,19.93
2018-08-17T02:55:29.990Z,23.97
2018-08-17T02:57:59.719Z,17.60
2018-08-17T03:00:29.506Z,20.70
2018-08-17T03:02:58.948Z,21.57
2018-08-17T03:05:28.599Z,18.03
2018-08-17T03:07:58.060Z,19.37
2018-08-17T03:10:27.572Z,19.70
2018-08-17T03:12:57.021Z,18.07
2018-08-17T03:15:26.540Z,17.80
2018-08-17T03:17:56.119Z,18.83
2018-08-17T03:20:25.690Z,18.30
2018-08-17T03:22:55.249Z,18.80
2018-08-17T03:25:24.768Z,20.53
2018-08-17T03:27:54.329Z,18.17
2018-08-17T03:30:23.811Z,16.93
2018-08-17T03:32:53.330Z,17.60
2018-08-17T03:35:23.013Z,18.47
2018-08-17T03:37:52.466Z,18.27
2018-08-17T03:40:22.087Z,18.67
2018-08-17T03:42:51.740Z,18.17
2018-08-17T03:45:21.245Z,17.80
2018-08-17T03:47:50.651Z,18.43
2018-08-17T03:50:20.188Z,19.07
2018-08-17T03:52:49.643Z,18.53
2018-08-17T03:55:19.220Z,17.23
2018-08-17T03:57:48.733Z,17.37
2018-08-17T04:00:18.446Z,21.13
2018-08-17T04:02:48.195Z,18.63
2018-08-17T04:05:17.875Z,17.63
2018-08-17T04:07:47.436Z,18.23
2018-08-17T04:10:17.156Z,19.03
2018-08-17T04:12:46.811Z,18.03
2018-08-17T04:15:16.420Z,18.07
2018-08-17T04:17:46.022Z,17.53
2018-08-17T04:20:15.464Z,21.93
2018-08-17T04:22:45.022Z,23.90
2018-08-17T04:25:14.732Z,20.93
2018-08-17T04:27:44.360Z,16.67
2018-08-17T04:30:13.896Z,20.03
2018-08-17T04:32:43.341Z,20.40
2018-08-17T04:35:12.824Z,16.70
2018-08-17T04:37:42.223Z,16.97
2018-08-17T04:40:11.825Z,14.23
2018-08-17T04:42:41.352Z,15.33
2018-08-17T04:45:11.025Z,16.80
2018-08-17T04:47:40.699Z,17.53
2018-08-17T04:50:10.746Z,19.43
2018-08-17T04:52:40.916Z,15.63
2018-08-17T04:55:10.994Z,17.60
2018-08-17T04:57:41.332Z,19.57
2018-08-17T05:00:11.399Z,13.07
2018-08-17T05:02:40.933Z,14.37
2018-08-17T05:05:10.590Z,10.87
2018-08-17T05:07:40.362Z,11.50
2018-08-17T05:10:10.223Z,12.53
2018-08-17T05:12:39.787Z,13.10
2018-08-17T05:15:09.527Z,14.47
2018-08-17T05:17:39.004Z,16.13
2018-08-17T05:20:08.730Z,15.80
2018-08-17T05:22:38.194Z,14.70
2018-08-17T05:25:07.898Z,14.47
2018-08-17T05:27:37.382Z,12.60
2018-08-17T05:30:07.122Z,12.90
2018-08-17T05:32:36.524Z,16.33
2018-08-17T05:35:07.052Z,13.50
2018-08-17T05:37:36.535Z,14.07
2018-08-17T05:40:07.600Z,13.97
2018-08-17T05:42:37.637Z,16.87
2018-08-17T05:45:08.152Z,13.70
2018-08-17T05:47:37.702Z,14.20
2018-08-17T05:50:08.120Z,20.40
2018-08-17T05:52:37.654Z,20.27
2018-08-17T05:55:07.282Z,19.10
2018-08-17T05:57:36.838Z,14.83
2018-08-17T06:00:08.207Z,20.33
2018-08-17T06:02:37.849Z,20.17
2018-08-17T06:05:08.344Z,20.23
2018-08-17T06:07:38.380Z,22.67
2018-08-17T06:10:09.563Z,13.60
2018-08-17T06:12:39.168Z,15.97
2018-08-17T06:15:09.176Z,19.20
2018-08-17T06:17:38.867Z,13.80
2018-08-17T06:20:09.232Z,19.20
2018-08-17T06:22:38.744Z,13.00
2018-08-17T06:25:10.231Z,17.27
2018-08-17T06:27:40.479Z,15.20
2018-08-17T06:30:13.050Z,24.13
2018-08-17T06:32:42.956Z,21.37
2018-08-17T06:35:13.747Z,19.00
2018-08-17T06:37:43.915Z,16.00
2018-08-17T06:40:13.623Z,15.97
2018-08-17T06:42:43.156Z,16.30
2018-08-17T06:45:13.483Z,17.27
2018-08-17T06:47:43.058Z,18.67
2018-08-17T06:50:12.981Z,35.57
2018-08-17T06:52:43.252Z,24.27
2018-08-17T06:55:13.245Z,14.90
2018-08-17T06:57:42.833Z,15.00
2018-08-17T07:00:14.879Z,25.73
2018-08-17T07:02:45.660Z,19.60
2018-08-17T07:05:15.551Z,11.63
2018-08-17T07:07:45.487Z,14.97
2018-08-17T07:10:15.401Z,11.67
2018-08-17T07:12:45.112Z,7.97
2018-08-17T07:15:14.798Z,12.20
2018-08-17T07:17:44.265Z,16.60
2018-08-17T07:20:14.402Z,14.37
2018-08-17T07:22:43.820Z,11.70
2018-08-17T07:25:13.165Z,17.13
2018-08-17T07:27:42.624Z,10.43
2018-08-17T07:30:12.350Z,7.93
2018-08-17T07:32:41.908Z,10.50
2018-08-17T07:35:11.769Z,12.10
2018-08-17T07:37:40.991Z,6.90
2018-08-17T07:40:10.647Z,8.77
2018-08-17T07:42:39.963Z,8.83
2018-08-17T07:45:09.316Z,9.40
2018-08-17T07:47:38.956Z,10.47
2018-08-17T07:50:08.608Z,11.13
2018-08-17T07:52:38.050Z,14.77
2018-08-17T07:55:07.404Z,11.03
2018-08-17T07:57:36.755Z,10.97
2018-08-17T08:00:06.669Z,10.97
2018-08-17T08:02:36.692Z,11.53
2018-08-17T08:05:06.690Z,10.63
2018-08-17T08:07:36.079Z,8.47
2018-08-17T08:10:06.663Z,10.43
2018-08-17T08:12:36.023Z,11.83
2018-08-17T08:15:05.693Z,11.43
2018-08-17T08:17:35.732Z,10.00
2018-08-17T08:20:16.736Z,8.77
2018-08-17T08:22:46.205Z,11.83
2018-08-17T08:25:15.755Z,8.00
2018-08-17T08:27:45.007Z,8.30
2018-08-17T08:30:14.463Z,10.50
2018-08-17T08:32:43.851Z,12.50
2018-08-17T08:35:13.358Z,10.43
2018-08-17T08:37:43.441Z,11.03
2018-08-17T08:40:12.979Z,15.63
2018-08-17T08:42:42.366Z,8.45
2018-08-17T08:45:11.793Z,10.47
2018-08-17T08:47:41.554Z,8.13
2018-08-17T08:50:11.000Z,7.80
2018-08-17T08:52:40.426Z,7.73
2018-08-17T08:55:10.034Z,12.87
2018-08-17T08:57:40.000Z,27.37
2018-08-17T09:00:10.290Z,10.90
2018-08-17T09:02:39.929Z,20.63
2018-08-17T09:05:09.660Z,11.87
2018-08-17T09:07:39.080Z,9.87
2018-08-17T09:10:09.775Z,8.47
2018-08-17T09:12:39.176Z,10.63
2018-08-17T09:15:10.122Z,13.70
2018-08-17T09:17:39.909Z,7.53
2018-08-17T09:20:11.064Z,9.13
2018-08-17T09:22:40.536Z,19.33
2018-08-17T09:25:10.004Z,6.27
2018-08-17T09:27:39.539Z,11.47
2018-08-17T09:30:14.434Z,8.33
2018-08-17T09:32:43.852Z,7.83
2018-08-17T09:35:14.129Z,8.90
2018-08-17T09:37:43.650Z,10.93
2018-08-17T09:40:13.033Z,10.30
2018-08-17T09:42:42.419Z,7.40
2018-08-17T09:45:13.092Z,8.83
2018-08-17T09:47:42.340Z,6.63
2018-08-17T09:50:14.314Z,9.03
2018-08-17T09:52:43.714Z,7.57
2018-08-17T09:55:13.146Z,8.20
2018-08-17T09:57:42.513Z,11.80
2018-08-17T10:00:12.238Z,7.37
2018-08-17T10:02:46.716Z,15.23
2018-08-17T10:05:21.091Z,13.57
2018-08-17T10:07:55.555Z,14.43
2018-08-17T10:10:55.557Z,9.60
2018-08-17T10:13:25.263Z,10.80
2018-08-17T10:15:54.658Z,8.67
2018-08-17T10:18:31.099Z,7.97
2018-08-17T10:21:00.731Z,8.07
2018-08-17T10:23:30.020Z,7.47
2018-08-17T10:25:59.408Z,11.07
2018-08-17T10:28:29.986Z,6.20
2018-08-17T10:30:59.342Z,9.57
2018-08-17T10:33:28.652Z,8.60
2018-08-17T10:36:00.195Z,6.67
2018-08-17T10:38:29.696Z,9.23
2018-08-17T10:40:59.204Z,10.37
2018-08-17T10:43:28.622Z,8.37
2018-08-17T10:45:58.827Z,10.23
2018-08-17T10:48:28.558Z,8.37
2018-08-17T10:50:58.628Z,6.30
2018-08-17T10:53:37.445Z,7.13
2018-08-17T10:56:08.039Z,7.90
2018-08-17T10:58:37.932Z,6.97
2018-08-17T11:01:07.295Z,7.97
2018-08-17T11:03:36.822Z,9.03
2018-08-17T11:06:06.401Z,6.63
2018-08-17T11:08:35.730Z,7.53
2018-08-17T11:11:05.562Z,9.00
2018-08-17T11:13:34.926Z,9.17
2018-08-17T11:16:04.480Z,6.30
2018-08-17T11:18:34.280Z,9.03
2018-08-17T11:21:03.704Z,13.50
2018-08-17T11:23:33.046Z,8.73
2018-08-17T11:26:02.533Z,12.47
2018-08-17T11:28:32.538Z,12.03
2018-08-17T11:31:02.149Z,6.37
2018-08-17T11:33:31.630Z,9.17
2018-08-17T11:36:01.021Z,13.90
2018-08-17T11:38:30.915Z,11.17
2018-08-17T11:41:00.285Z,8.60
2018-08-17T11:43:30.345Z,6.43
2018-08-17T11:45:59.909Z,5.30
2018-08-17T11:48:34.199Z,7.50
2018-08-17T11:51:03.738Z,5.90
2018-08-17T11:53:33.123Z,8.73
2018-08-17T11:56:02.557Z,11.83
2018-08-17T11:58:31.951Z,11.77
2018-08-17T12:01:01.474Z,7.53
2018-08-17T12:03:31.765Z,9.30
2018-08-17T12:06:01.190Z,6.97
2018-08-17T12:08:30.577Z,6.00
2018-08-17T12:11:04.107Z,9.63
2018-08-17T12:13:33.814Z,9.73
2018-08-17T12:16:03.223Z,5.93
2018-08-17T12:18:32.681Z,5.93
2018-08-17T12:21:02.704Z,10.30
2018-08-17T12:23:32.945Z,8.47
2018-08-17T12:26:02.363Z,7.03
2018-08-17T12:28:32.136Z,7.70
2018-08-17T12:31:01.665Z,7.63
2018-08-17T12:33:31.978Z,12.15
2018-08-17T12:36:01.410Z,17.07
2018-08-17T12:38:31.721Z,9.93
2018-08-17T12:41:01.153Z,13.73
2018-08-17T12:43:39.235Z,8.00
2018-08-17T12:46:09.252Z,6.13
2018-08-17T12:48:38.505Z,6.50
2018-08-17T12:51:09.046Z,9.00
2018-08-17T12:53:38.386Z,8.60
2018-08-17T12:56:07.772Z,8.23
2018-08-17T12:58:37.170Z,9.07
2018-08-17T13:01:06.561Z,5.20
2018-08-17T13:03:35.952Z,6.20
2018-08-17T13:06:05.470Z,4.50
2018-08-17T13:08:34.848Z,5.97
2018-08-17T13:11:05.040Z,9.33
2018-08-17T13:13:34.636Z,5.30
2018-08-17T13:16:04.725Z,7.30
2018-08-17T13:18:36.199Z,4.30
2018-08-17T13:21:05.816Z,8.80
2018-08-17T13:23:35.299Z,5.53
2018-08-17T13:26:04.857Z,7.13
2018-08-17T13:28:34.365Z,6.90
2018-08-17T13:31:03.873Z,9.03
2018-08-17T13:33:33.286Z,4.97
2018-08-17T13:36:02.878Z,7.23
2018-08-17T13:38:32.232Z,6.03
2018-08-17T13:41:01.628Z,6.10
2018-08-17T13:43:31.033Z,7.00
2018-08-17T13:46:00.422Z,6.47
2018-08-17T13:48:29.894Z,6.30
2018-08-17T13:50:59.400Z,9.07
2018-08-17T13:53:28.798Z,5.83
2018-08-17T13:55:58.125Z,7.73
2018-08-17T13:58:28.235Z,5.03
2018-08-17T14:00:57.823Z,6.27
2018-08-17T14:03:27.265Z,5.37
2018-08-17T14:05:56.724Z,6.20
2018-08-17T14:08:26.229Z,5.70
2018-08-17T14:10:55.604Z,5.63
2018-08-17T14:13:25.193Z,8.67
2018-08-17T14:15:54.556Z,7.70
2018-08-17T14:18:23.871Z,7.20
2018-08-17T14:20:53.241Z,8.03
2018-08-17T14:23:22.679Z,10.20
2018-08-17T14:25:52.187Z,10.45
2018-08-17T14:28:21.542Z,10.33
2018-08-17T14:30:50.934Z,8.93
2018-08-17T14:33:20.334Z,11.47
2018-08-17T14:35:50.056Z,5.63
2018-08-17T14:38:30.697Z,7.70
2018-08-17T14:41:00.100Z,8.67
2018-08-17T14:43:29.987Z,7.33
2018-08-17T14:45:59.343Z,4.93
2018-08-17T14:48:28.785Z,6.93
2018-08-17T14:50:58.245Z,8.60
2018-08-17T14:53:27.904Z,7.33
2018-08-17T14:55:58.238Z,6.33
2018-08-17T14:58:27.802Z,7.83
2018-08-17T15:00:57.835Z,8.00
2018-08-17T15:03:27.243Z,7.00
2018-08-17T15:05:56.607Z,9.33
2018-08-17T15:08:26.170Z,10.87
2018-08-17T15:10:55.639Z,6.27
2018-08-17T15:13:24.942Z,5.90
2018-08-17T15:15:54.425Z,7.33
2018-08-17T15:18:23.824Z,8.93
2018-08-17T15:20:53.337Z,10.17
2018-08-17T15:23:26.609Z,4.27
2018-08-17T15:25:56.160Z,4.37
2018-08-17T15:28:25.776Z,4.63
2018-08-17T15:30:55.323Z,5.70
2018-08-17T15:33:25.020Z,7.97
2018-08-17T15:35:54.383Z,4.47
2018-08-17T15:38:23.904Z,3.73
2018-08-17T15:40:53.289Z,3.77
2018-08-17T15:43:22.683Z,3.47
2018-08-17T15:45:52.046Z,5.00
2018-08-17T15:48:21.632Z,3.67
2018-08-17T15:50:51.046Z,5.23
2018-08-17T15:53:20.568Z,3.33
2018-08-17T15:55:50.307Z,3.27
2018-08-17T15:58:19.679Z,3.57
2018-08-17T16:00:49.174Z,3.90
2018-08-17T16:03:19.165Z,6.27
2018-08-17T16:05:48.626Z,5.13
2018-08-17T16:08:17.997Z,4.93
2018-08-17T16:10:47.384Z,4.53
2018-08-17T16:13:16.980Z,6.90
2018-08-17T16:15:46.515Z,5.23
2018-08-17T16:18:16.029Z,6.23
2018-08-17T16:20:45.432Z,9.20
2018-08-17T16:23:15.423Z,4.60
2018-08-17T16:25:44.927Z,4.20
2018-08-17T16:28:14.975Z,9.87
2018-08-17T16:30:44.335Z,7.63
2018-08-17T16:33:13.741Z,6.70
2018-08-17T16:35:43.168Z,5.57
2018-08-17T16:38:12.883Z,7.97
2018-08-17T16:40:47.378Z,5.60
2018-08-17T16:43:20.202Z,9.07
2018-08-17T16:45:49.589Z,8.63
2018-08-17T16:48:18.960Z,8.80
2018-08-17T16:50:48.352Z,6.27
2018-08-17T16:53:17.950Z,8.07
2018-08-17T16:55:47.403Z,7.80
2018-08-17T16:58:17.626Z,5.47
2018-08-17T17:00:47.060Z,12.13
2018-08-17T17:03:16.382Z,8.40
2018-08-17T17:05:45.856Z,5.37
2018-08-17T17:08:15.459Z,5.80
2018-08-17T17:10:44.823Z,6.57
2018-08-17T17:13:14.135Z,10.77
2018-08-17T17:15:43.691Z,7.97
2018-08-17T17:18:12.989Z,8.83
2018-08-17T17:20:42.268Z,7.43
2018-08-17T17:23:12.297Z,7.10
2018-08-17T17:25:41.827Z,8.40
2018-08-17T17:28:11.172Z,11.47
2018-08-17T17:30:46.007Z,8.00
2018-08-17T17:33:15.371Z,6.43
2018-08-17T17:35:45.165Z,13.07
2018-08-17T17:38:14.717Z,6.60
2018-08-17T17:40:44.130Z,9.13
2018-08-17T17:43:13.806Z,15.17
2018-08-17T17:45:43.314Z,10.90
2018-08-17T17:48:12.631Z,8.20
2018-08-17T17:50:42.153Z,12.23
2018-08-17T17:53:11.612Z,18.53
2018-08-17T17:55:45.804Z,14.67
2018-08-17T17:58:15.238Z,12.63
2018-08-17T18:00:55.273Z,11.43
2018-08-17T18:03:24.956Z,10.00
2018-08-17T18:05:54.435Z,11.43
2018-08-17T18:08:23.794Z,12.13
2018-08-17T18:10:53.388Z,10.77
2018-08-17T18:13:22.913Z,8.03
2018-08-17T18:15:52.353Z,9.70
2018-08-17T18:18:21.812Z,11.97
2018-08-17T18:20:52.344Z,7.03
2018-08-17T18:23:22.036Z,11.73
2018-08-17T18:25:51.348Z,8.83
2018-08-17T18:28:20.764Z,8.20
2018-08-17T18:30:50.188Z,6.80
2018-08-17T18:33:19.585Z,9.53
2018-08-17T18:35:48.955Z,12.23
2018-08-17T18:38:18.402Z,11.80
2018-08-17T18:40:47.684Z,9.53
2018-08-17T18:43:17.062Z,9.00
2018-08-17T18:45:46.393Z,9.87
2018-08-17T18:48:15.968Z,12.93
2018-08-17T18:50:45.506Z,9.40
2018-08-17T18:53:15.193Z,12.40
2018-08-17T18:55:44.639Z,13.57
2018-08-17T18:58:14.199Z,18.37
2018-08-17T19:00:43.584Z,10.40
2018-08-17T19:03:13.016Z,11.23
2018-08-17T19:05:42.815Z,12.87
2018-08-17T19:08:12.326Z,20.67
2018-08-17T19:10:41.851Z,13.73
2018-08-17T19:13:11.305Z,9.30
2018-08-17T19:15:45.646Z,12.47
2018-08-17T19:18:15.530Z,7.37
2018-08-17T19:20:45.050Z,15.63
2018-08-17T19:23:14.523Z,9.33
2018-08-17T19:25:44.009Z,18.40
2018-08-17T19:28:13.897Z,10.63
2018-08-17T19:30:43.307Z,11.67
2018-08-17T19:33:13.684Z,11.30
2018-08-17T19:35:47.826Z,14.30
2018-08-17T19:38:18.460Z,16.13
2018-08-17T19:40:48.354Z,16.70
2018-08-17T19:43:17.741Z,17.63
2018-08-17T19:45:47.238Z,13.23
2018-08-17T19:48:16.932Z,15.30
2018-08-17T19:50:46.546Z,12.07
2018-08-17T19:53:15.938Z,17.63
2018-08-17T19:55:45.425Z,14.50
2018-08-17T19:58:14.924Z,18.30
2018-08-17T20:00:44.454Z,14.63
2018-08-17T20:03:13.961Z,17.97
2018-08-17T20:05:43.428Z,21.63
2018-08-17T20:08:12.996Z,19.37
2018-08-17T20:10:43.536Z,14.40
2018-08-17T20:13:12.814Z,18.73
2018-08-17T20:15:42.296Z,19.67
2018-08-17T20:18:11.894Z,18.80
2018-08-17T20:20:41.590Z,18.17
2018-08-17T20:23:11.284Z,20.27
2018-08-17T20:25:40.769Z,14.90
2018-08-17T20:28:10.254Z,13.20
2018-08-17T20:30:39.785Z,18.13
2018-08-17T20:33:43.499Z,19.17
2018-08-17T20:36:18.321Z,21.30
2018-08-17T20:38:48.276Z,17.77
2018-08-17T20:41:17.923Z,16.30
2018-08-17T20:43:47.769Z,20.70
2018-08-17T20:46:17.179Z,13.80
2018-08-17T20:48:48.370Z,17.70
2018-08-17T20:51:23.031Z,16.53
2018-08-17T20:53:57.914Z,13.30
2018-08-17T20:56:27.915Z,13.63
2018-08-17T20:58:57.711Z,13.63
2018-08-17T21:01:27.362Z,12.77
2018-08-17T21:03:56.828Z,10.73
2018-08-17T21:06:26.569Z,13.43
2018-08-17T21:08:56.338Z,20.47
2018-08-17T21:11:26.224Z,14.97
2018-08-17T21:13:55.747Z,14.73
2018-08-17T21:16:25.439Z,12.27
2018-08-17T21:18:55.338Z,14.93
2018-08-17T21:21:25.513Z,13.40
2018-08-17T21:23:58.645Z,16.73
2018-08-17T21:26:30.245Z,14.13
2018-08-17T21:28:59.765Z,19.13
2018-08-17T21:31:29.435Z,21.90
2018-08-17T21:33:59.888Z,17.67
2018-08-17T21:36:29.517Z,15.23
2018-08-17T21:39:13.168Z,12.60
2018-08-17T21:41:44.103Z,14.33
2018-08-17T21:44:15.720Z,15.63
2018-08-17T21:47:17.244Z,14.40
2018-08-17T21:49:46.731Z,14.67
2018-08-17T21:52:21.141Z,22.37
2018-08-17T21:54:50.671Z,14.93
2018-08-17T21:57:20.640Z,20.97
2018-08-17T21:59:50.945Z,14.97
2018-08-17T22:02:21.249Z,20.77
2018-08-17T22:04:50.975Z,21.73
2018-08-17T22:07:21.782Z,21.03
2018-08-17T22:09:51.882Z,14.07
2018-08-17T22:12:21.929Z,13.50
2018-08-17T22:14:51.356Z,18.67
2018-08-17T22:17:33.785Z,17.10
2018-08-17T22:20:04.334Z,17.33
2018-08-17T22:22:34.078Z,19.87
2018-08-17T22:25:05.590Z,20.70
2018-08-17T22:27:38.832Z,14.37
2018-08-17T22:30:23.205Z,15.37
2018-08-17T22:32:53.085Z,18.83
2018-08-17T22:35:22.756Z,14.40
2018-08-17T22:37:52.312Z,15.17
2018-08-17T22:40:21.856Z,16.73
2018-08-17T22:42:51.686Z,15.67
2018-08-17T22:45:21.153Z,19.57
2018-08-17T22:47:50.627Z,21.83
2018-08-17T22:50:20.213Z,17.53
2018-08-17T22:52:49.695Z,19.30
2018-08-17T22:55:19.195Z,17.73
2018-08-17T22:57:48.795Z,17.80
2018-08-17T23:00:21.812Z,18.23
2018-08-17T23:02:52.599Z,14.80
2018-08-17T23:05:24.206Z,20.17
2018-08-17T23:07:53.740Z,16.70
2018-08-17T23:10:24.569Z,14.77
2018-08-17T23:12:54.827Z,16.67
2018-08-17T23:15:24.250Z,18.20
2018-08-17T23:17:55.041Z,22.27
2018-08-17T23:20:29.490Z,14.23
2018-08-17T23:23:00.973Z,15.77
2018-08-17T23:25:30.674Z,16.53
2018-08-17T23:28:00.114Z,12.80
2018-08-17T23:30:29.853Z,18.27
2018-08-17T23:32:59.510Z,15.67
2018-08-17T23:35:30.008Z,15.47
2018-08-17T23:37:59.681Z,19.87
2018-08-17T23:40:29.276Z,19.50
2018-08-17T23:42:59.924Z,18.70
2018-08-17T23:45:29.530Z,17.30
2018-08-17T23:47:59.096Z,14.17
2018-08-17T23:50:28.639Z,15.47
2018-08-17T23:52:58.195Z,11.80
2018-08-17T23:55:27.769Z,17.37
2018-08-17T23:57:57.239Z,14.27
